Anaktuvuk Pass, AK

10:46 PM AKST on February 27, 2017 (GMT -0900)
Anaktuvuk Pass | | Change Station
Active Advisory: Winter Weather Advisory

Elev 2106 ft 68.13 °N, 151.74 °W | Updated 10 minutes ago

Mostly Cloudy
Mostly Cloudy
-15 °F
Feels Like -40 °F
N
18
Wind Variable Wind from ENE

Today
High -- | Low -- °F
--% Chance of Precip.
Yesterday
High -- | Low -- °F
Precip. -- in
Pressure 30.10 in
Visibility 5.0 miles
Clouds Scattered Clouds 2600 ft
Scattered Clouds 3300 ft
Mostly Cloudy 4100 ft
Windchill -40 °F
Dew Point -29 °F
Humidity 48%
Rainfall 0.00 in
Snow Depth Not available.
8:32 AM 6:07 PM
Waxing Crescent, 4% visible
METAR PAKP 280736Z AUTO 06016KT 5SM SCT026 SCT033 BKN041 M26/M34 A3010 RMK AO1
Pressure 30.10 in
Visibility 5.0 miles
Clouds Scattered Clouds 2600 ft
Scattered Clouds 3300 ft
Mostly Cloudy 4100 ft
Windchill -40 °F
Dew Point -29 °F
Humidity 48%
Rainfall 0.00 in
Snow Depth Not available.
8:32 AM 6:07 PM
Waxing Crescent, 4% visible
METAR PAKP 280736Z AUTO 06016KT 5SM SCT026 SCT033 BKN041 M26/M34 A3010 RMK AO1

Get Your Daily Forecast Email!

Thanks for signing up!

Be on the lookout for a verification email in your inbox.

You'll start receiving the daily forecast at 8 AM.

×

10-Day Weather Forecast

Almanac

Astronomy

Feb. 27, 2017 Rise Set
Actual Time
Civil Twilight
Nautical Twilight
Astronomical Twilight
Moon
Length of Visible Light
Length of Day
Tomorrow will be .
, % of the Moon is Illuminated

Today's Extremes

State Highs State Lows

Community

WunderPhotos

Upload Photos

1,962,540 photos uploaded!

WunderBlog® & News

Nearby

Air Quality

  Air Quality AQ Index Pollutant
Not available.

Snow Depth

Station Depth Elevation

Earthquake Activity

City Distance Mag. Time & Date
Minimum magnitude displayed is 2.5.

Coastal Water Temperatures

Place Temperature

Stations

Nearby Weather Stations

Station Location Temp. Windchill Dew Point Humidity Wind Precip. Elev Updated Type
                   

Watches & Warnings

Winter Weather Advisory
Issued: 7:33 PM AKST Feb. 27, 2017 – National Weather Service

... Winter Weather Advisory remains in effect until midnight akst
Tuesday night...

* location... near passes.

* Wind chill... to 55 below.

* Winds... north gusting to 35 mph.

* Blowing snow... will cause visibility of one half mile or less
at times along with heavy drifting snow.

* Timing... gusty winds along with very cold wind chills and low
visibility in blowing snow are now occuring. The strongest
winds and lowest visibility will be from now through Tuesday
evening. Conditions will improve late Tuesday night as winds
decrease.

* Impacts... visibility will be very poor and snow will
accumulate into drifts. Travel and outdoor activities will be
difficult. Exposed flesh will freeze in a short time resulting
in frostbite.

Precautionary/preparedness actions...

A Winter Weather Advisory means that one or more winter weather
hazards are expected to cause travel difficulties.